Time;durP1;ratioP1;P1;durP2;ratioP2;P2;SDS_P1;SDS_P2;PMS_P1;PMS_P2;Temp;Humidity;BMP_temperature;BMP_pressure;BME280_temperature;BME280_humidity;BME280_pressure;Samples;Min_cycle;Max_cycle;Signal;HPM_P1;HPM_P2
2024/01/11 00:00:42;;;;;;;11.73;11.43;;;-5.70;99.90;;;;;;5022768;28;20465;-70
2024/01/11 00:03:09;;;;;;;12.33;11.97;;;-5.70;99.90;;;;;;5022172;28;20465;-70
2024/01/11 00:05:36;;;;;;;11.60;11.30;;;-5.70;99.90;;;;;;5023098;28;20457;-72
2024/01/11 00:08:04;;;;;;;11.97;11.67;;;-5.70;99.90;;;;;;5019720;28;20468;-70
2024/01/11 00:10:30;;;;;;;12.40;12.00;;;-5.70;99.90;;;;;;5014110;28;20495;-71
2024/01/11 00:12:57;;;;;;;11.80;11.50;;;-5.60;99.90;;;;;;5020122;28;20977;-72
2024/01/11 00:15:26;;;;;;;12.00;11.70;;;-5.60;99.90;;;;;;5017786;28;21041;-71
2024/01/11 00:17:53;;;;;;;12.50;12.10;;;-5.60;99.90;;;;;;5013638;28;20560;-72
2024/01/11 00:20:19;;;;;;;11.97;11.67;;;-5.70;99.90;;;;;;5022502;28;20995;-69
2024/01/11 00:22:47;;;;;;;11.80;11.50;;;-5.70;99.90;;;;;;5021479;28;20465;-68
2024/01/11 00:25:14;;;;;;;11.80;11.50;;;-5.80;99.90;;;;;;5027710;28;20445;-69
2024/01/11 00:27:40;;;;;;;11.60;11.30;;;-5.80;99.90;;;;;;5025023;28;20457;-70
2024/01/11 00:30:09;;;;;;;12.30;12.00;;;-5.80;99.90;;;;;;5010189;28;20470;-68
2024/01/11 00:32:37;;;;;;;11.63;11.33;;;-5.80;99.90;;;;;;5025706;28;20483;-70
2024/01/11 00:35:04;;;;;;;11.43;11.13;;;-5.80;99.90;;;;;;5025298;28;20456;-69
2024/01/11 00:37:31;;;;;;;11.90;11.60;;;-5.80;99.90;;;;;;5026500;28;21042;-69
2024/01/11 00:39:58;;;;;;;11.10;10.80;;;-5.80;99.90;;;;;;5023559;28;20800;-68
2024/01/11 00:42:26;;;;;;;11.70;11.40;;;-5.90;99.90;;;;;;5041918;28;20463;-70
2024/01/11 00:44:53;;;;;;;11.57;11.27;;;-5.80;99.90;;;;;;5009972;28;21064;-68
2024/01/11 00:47:19;;;;;;;11.10;10.80;;;-5.70;99.90;;;;;;5019236;28;20450;-71
2024/01/11 00:49:48;;;;;;;11.47;11.17;;;-5.70;99.90;;;;;;5017613;28;20462;-69
2024/01/11 00:52:15;;;;;;;11.60;11.30;;;-5.70;99.90;;;;;;5029193;28;20466;-69
2024/01/11 00:54:42;;;;;;;11.40;11.10;;;-5.70;99.90;;;;;;5016490;28;20458;-70
2024/01/11 00:57:08;;;;;;;11.37;11.07;;;-5.80;99.90;;;;;;5022170;28;20543;-69
2024/01/11 00:59:36;;;;;;;11.70;11.40;;;-5.80;99.90;;;;;;5020665;28;20521;-70
2024/01/11 01:02:02;;;;;;;11.57;11.27;;;-5.90;99.90;;;;;;5026099;28;20922;-70
2024/01/11 01:04:29;;;;;;;11.60;11.30;;;-5.90;99.90;;;;;;5019662;28;20885;-70
2024/01/11 01:06:57;;;;;;;12.00;11.70;;;-5.90;99.90;;;;;;5037917;28;20451;-71
2024/01/11 01:09:24;;;;;;;11.83;11.53;;;-6.00;99.90;;;;;;5024105;28;20956;-70
2024/01/11 01:11:51;;;;;;;12.10;11.80;;;-6.00;99.90;;;;;;5014964;28;20460;-69
2024/01/11 01:14:18;;;;;;;11.87;11.57;;;-6.00;99.90;;;;;;5018421;28;20497;-69
2024/01/11 01:16:45;;;;;;;11.50;11.20;;;-6.00;99.90;;;;;;5013856;28;20826;-71
2024/01/11 01:19:12;;;;;;;11.13;10.83;;;-6.00;99.90;;;;;;5020943;28;20557;-71
2024/01/11 01:21:39;;;;;;;11.60;11.30;;;-6.00;99.90;;;;;;5029972;28;20461;-69
2024/01/11 01:24:07;;;;;;;11.43;11.13;;;-6.10;99.90;;;;;;5019660;28;20505;-70
2024/01/11 01:26:34;;;;;;;12.07;11.77;;;-6.10;99.90;;;;;;5019352;28;21108;-70
2024/01/11 01:29:00;;;;;;;11.93;11.63;;;-6.10;99.90;;;;;;5020295;28;21480;-70
2024/01/11 01:31:28;;;;;;;11.60;11.30;;;-6.10;99.90;;;;;;5028225;28;20461;-71
2024/01/11 01:33:55;;;;;;;12.43;12.03;;;-6.10;99.90;;;;;;5018238;28;20484;-70
2024/01/11 01:36:21;;;;;;;11.33;11.03;;;-6.10;99.90;;;;;;5017011;28;20473;-70
2024/01/11 01:38:48;;;;;;;11.97;11.67;;;-6.10;99.90;;;;;;5026330;28;20468;-71
2024/01/11 01:41:16;;;;;;;12.00;11.70;;;-6.10;99.90;;;;;;5014680;28;20480;-71
2024/01/11 01:43:43;;;;;;;11.40;11.10;;;-6.20;99.90;;;;;;5031912;28;20593;-69
2024/01/11 01:46:10;;;;;;;11.13;10.83;;;-6.30;99.90;;;;;;5026922;28;20470;-71
2024/01/11 01:48:38;;;;;;;12.13;11.83;;;-6.30;99.90;;;;;;5022376;28;20860;-69
2024/01/11 01:51:06;;;;;;;11.57;11.27;;;-6.30;99.90;;;;;;5026523;28;20481;-69
2024/01/11 01:53:33;;;;;;;11.70;11.40;;;-6.30;99.90;;;;;;5006748;28;20551;-71
2024/01/11 01:56:00;;;;;;;11.43;11.13;;;-6.30;99.90;;;;;;5017633;28;20458;-69
2024/01/11 01:58:29;;;;;;;10.90;10.60;;;-6.40;99.90;;;;;;5027018;28;20460;-70
2024/01/11 02:00:57;;;;;;;11.30;11.00;;;-6.50;99.90;;;;;;5021863;28;20465;-71
2024/01/11 02:03:25;;;;;;;11.50;11.20;;;-6.50;99.90;;;;;;5013551;28;20458;-70
2024/01/11 02:05:53;;;;;;;10.83;10.57;;;-6.60;99.90;;;;;;5021279;28;20461;-71
2024/01/11 02:08:22;;;;;;;11.67;11.37;;;-6.70;99.90;;;;;;5022508;28;20857;-70
2024/01/11 02:10:49;;;;;;;11.77;11.47;;;-6.70;99.90;;;;;;5019013;28;20500;-71
2024/01/11 02:13:17;;;;;;;11.60;11.30;;;-6.70;99.90;;;;;;5021491;28;20500;-70
2024/01/11 02:15:46;;;;;;;10.90;10.60;;;-6.70;99.90;;;;;;5025406;28;20457;-71
2024/01/11 02:18:13;;;;;;;11.43;11.13;;;-6.70;99.90;;;;;;5028280;28;20452;-71
2024/01/11 02:20:41;;;;;;;11.20;10.90;;;-6.60;99.90;;;;;;5021129;28;20478;-69
2024/01/11 02:23:13;;;;;;;11.43;11.13;;;-6.60;99.90;;;;;;5018903;28;20497;-69
2024/01/11 02:25:42;;;;;;;11.00;10.70;;;-6.60;99.90;;;;;;5015628;28;20454;-70
2024/01/11 02:28:09;;;;;;;11.57;11.27;;;-6.60;99.90;;;;;;5022529;28;20472;-71
2024/01/11 02:30:35;;;;;;;11.50;11.20;;;-6.70;99.90;;;;;;5015839;28;20522;-69
2024/01/11 02:33:03;;;;;;;10.87;10.57;;;-6.70;99.90;;;;;;5018130;28;20494;-71
2024/01/11 02:35:30;;;;;;;11.40;11.10;;;-6.90;99.90;;;;;;5024641;28;20465;-69
2024/01/11 02:37:58;;;;;;;10.67;10.43;;;-7.00;99.90;;;;;;5034640;28;20452;-71
2024/01/11 02:40:26;;;;;;;10.53;10.33;;;-7.10;99.90;;;;;;5029851;28;20961;-70
2024/01/11 02:42:55;;;;;;;10.77;10.50;;;-7.10;99.90;;;;;;5024195;28;20453;-70
2024/01/11 02:45:21;;;;;;;10.97;10.67;;;-7.10;99.90;;;;;;5020087;28;20465;-71
2024/01/11 02:47:48;;;;;;;10.60;10.40;;;-7.20;99.90;;;;;;5022836;28;20463;-71
2024/01/11 02:50:15;;;;;;;11.20;10.90;;;-7.20;99.90;;;;;;5023919;28;20472;-69
2024/01/11 02:52:43;;;;;;;11.37;11.07;;;-7.20;99.90;;;;;;5035498;28;20461;-70
2024/01/11 02:55:11;;;;;;;11.10;10.80;;;-7.30;99.90;;;;;;5023083;28;20491;-71
2024/01/11 02:57:38;;;;;;;11.27;10.97;;;-7.30;99.90;;;;;;5021223;28;20861;-72
2024/01/11 03:00:07;;;;;;;10.50;10.30;;;-7.20;99.90;;;;;;5037983;28;20467;-73
2024/01/11 03:02:34;;;;;;;11.17;10.87;;;-7.20;99.90;;;;;;5026009;28;20471;-69
2024/01/11 03:05:01;;;;;;;10.27;10.07;;;-7.30;99.90;;;;;;5040883;28;20490;-70
2024/01/11 03:07:30;;;;;;;11.03;10.73;;;-7.30;99.90;;;;;;5030091;28;20468;-69
2024/01/11 03:09:57;;;;;;;11.27;10.97;;;-7.20;99.90;;;;;;5024269;28;20473;-69
2024/01/11 03:12:25;;;;;;;10.60;10.40;;;-7.10;99.90;;;;;;5018847;28;21170;-69
2024/01/11 03:14:52;;;;;;;11.00;10.70;;;-7.10;99.90;;;;;;5018354;28;20505;-71
2024/01/11 03:17:21;;;;;;;10.40;10.20;;;-7.20;99.90;;;;;;5022728;28;20573;-68
2024/01/11 03:19:48;;;;;;;11.50;11.20;;;-7.20;99.90;;;;;;5029437;28;20471;-68
2024/01/11 03:22:15;;;;;;;11.17;10.87;;;-7.20;99.90;;;;;;5032696;28;21028;-71
2024/01/11 03:24:42;;;;;;;10.43;10.23;;;-7.20;99.90;;;;;;5016785;28;20952;-68
2024/01/11 03:27:09;;;;;;;10.90;10.60;;;-7.10;99.90;;;;;;5026056;28;20945;-69
2024/01/11 03:29:35;;;;;;;10.63;10.43;;;-7.20;99.90;;;;;;5033708;28;20463;-71
2024/01/11 03:32:03;;;;;;;10.40;10.20;;;-7.20;99.90;;;;;;5022689;28;20468;-69
2024/01/11 03:34:31;;;;;;;11.20;10.90;;;-7.10;99.90;;;;;;5029299;28;20535;-70
2024/01/11 03:36:58;;;;;;;10.67;10.47;;;-7.20;99.90;;;;;;5017964;28;20469;-70
2024/01/11 03:39:26;;;;;;;10.90;10.60;;;-7.30;99.90;;;;;;5030773;28;20465;-71
2024/01/11 03:41:53;;;;;;;10.70;10.50;;;-7.30;99.90;;;;;;5020075;28;20504;-70
2024/01/11 03:44:20;;;;;;;10.70;10.50;;;-7.30;99.90;;;;;;5020568;28;20485;-68
2024/01/11 03:46:48;;;;;;;10.10;9.90;;;-7.30;99.90;;;;;;5017108;28;20596;-69
2024/01/11 03:49:15;;;;;;;11.27;10.97;;;-7.40;99.90;;;;;;5020475;28;20463;-71
2024/01/11 03:51:44;;;;;;;10.30;10.10;;;-7.50;99.90;;;;;;5029360;28;20461;-69
2024/01/11 03:54:11;;;;;;;10.53;10.33;;;-7.60;99.90;;;;;;5029400;28;20483;-72
2024/01/11 03:56:39;;;;;;;11.07;10.77;;;-7.70;99.90;;;;;;5025826;28;20468;-71
2024/01/11 03:59:08;;;;;;;10.67;10.47;;;-7.70;99.90;;;;;;5026629;28;21058;-70
2024/01/11 04:01:39;;;;;;;10.63;10.43;;;-7.60;99.90;;;;;;5013357;28;20988;-70
2024/01/11 04:04:06;;;;;;;10.63;10.43;;;-7.50;99.90;;;;;;5030769;28;20829;-70
2024/01/11 04:06:34;;;;;;;10.47;10.27;;;-7.40;99.90;;;;;;5026157;28;20475;-71
2024/01/11 04:09:03;;;;;;;9.60;9.40;;;-7.50;99.90;;;;;;5023745;28;20465;-71
2024/01/11 04:11:30;;;;;;;9.87;9.67;;;-7.60;99.90;;;;;;5029635;28;20500;-69
2024/01/11 04:13:57;;;;;;;10.07;9.87;;;-7.70;99.90;;;;;;5027728;28;20985;-71
2024/01/11 04:16:24;;;;;;;9.97;9.77;;;-7.80;99.90;;;;;;5027700;28;20731;-72
2024/01/11 04:18:51;;;;;;;9.90;9.70;;;-7.90;99.90;;;;;;5026322;28;20543;-71
2024/01/11 04:21:24;;;;;;;10.07;9.87;;;-8.00;99.90;;;;;;5016688;28;20461;-71
2024/01/11 04:23:52;;;;;;;10.03;9.83;;;-7.90;99.90;;;;;;5024792;28;20496;-71
2024/01/11 04:26:21;;;;;;;10.00;9.80;;;-7.90;99.90;;;;;;5032077;28;21462;-71
2024/01/11 04:28:48;;;;;;;10.00;9.80;;;-7.90;99.90;;;;;;5031328;28;20468;-70
2024/01/11 04:31:16;;;;;;;10.10;9.90;;;-7.90;99.90;;;;;;5018876;28;20545;-72
2024/01/11 04:33:44;;;;;;;9.60;9.40;;;-7.90;99.90;;;;;;5014941;28;20579;-71
2024/01/11 04:36:11;;;;;;;10.13;9.93;;;-7.90;99.90;;;;;;5016523;28;20809;-72
2024/01/11 04:38:38;;;;;;;10.40;10.20;;;-8.00;99.90;;;;;;5022112;28;20848;-70
2024/01/11 04:41:08;;;;;;;10.17;9.97;;;-8.00;99.90;;;;;;5035678;28;20464;-72
2024/01/11 04:43:39;;;;;;;10.60;10.40;;;-8.20;99.90;;;;;;5035035;28;20485;-71
2024/01/11 04:46:14;;;;;;;10.13;9.93;;;-8.20;99.90;;;;;;5022228;28;20961;-72
2024/01/11 04:48:41;;;;;;;10.50;10.30;;;-8.30;99.90;;;;;;5025504;28;20461;-72
2024/01/11 04:51:08;;;;;;;10.43;10.23;;;-8.30;99.90;;;;;;5026829;28;20473;-72
2024/01/11 04:53:38;;;;;;;10.67;10.47;;;-8.30;99.90;;;;;;5015850;28;20510;-72
2024/01/11 04:56:04;;;;;;;10.20;10.00;;;-8.40;99.90;;;;;;5025061;28;20461;-70
2024/01/11 04:58:32;;;;;;;10.23;10.03;;;-8.30;99.90;;;;;;5026953;28;20469;-73
2024/01/11 05:01:00;;;;;;;10.50;10.30;;;-8.30;99.90;;;;;;5029876;28;20457;-70
2024/01/11 05:03:27;;;;;;;10.23;10.03;;;-8.20;99.90;;;;;;5013485;28;20720;-69
2024/01/11 05:05:54;;;;;;;10.50;10.30;;;-8.10;99.90;;;;;;5022994;28;20466;-70
2024/01/11 05:08:21;;;;;;;9.70;9.50;;;-8.10;99.90;;;;;;5030246;28;20478;-69
2024/01/11 05:10:47;;;;;;;10.23;10.03;;;-8.00;99.90;;;;;;5036979;28;20488;-69
2024/01/11 05:13:15;;;;;;;10.23;10.03;;;-8.00;99.90;;;;;;5028311;28;20496;-71
2024/01/11 05:15:42;;;;;;;10.33;10.13;;;-7.90;99.90;;;;;;5016876;28;20860;-71
2024/01/11 05:18:11;;;;;;;9.20;9.00;;;-7.90;99.90;;;;;;5011779;28;20466;-70
2024/01/11 05:20:38;;;;;;;10.33;10.13;;;-7.80;99.90;;;;;;5019729;28;20467;-71
2024/01/11 05:23:05;;;;;;;9.83;9.63;;;-7.70;99.90;;;;;;5024761;28;20469;-71
2024/01/11 05:25:33;;;;;;;10.30;10.10;;;-7.80;99.90;;;;;;5019937;28;20887;-70
2024/01/11 05:28:00;;;;;;;9.90;9.70;;;-7.80;99.90;;;;;;5036336;28;20796;-69
2024/01/11 05:30:27;;;;;;;10.43;10.23;;;-7.80;99.90;;;;;;5031482;28;20467;-70
2024/01/11 05:32:54;;;;;;;9.83;9.63;;;-7.90;99.90;;;;;;5021351;28;20514;-71
2024/01/11 05:35:23;;;;;;;10.73;10.50;;;-7.80;99.90;;;;;;5023386;28;21234;-70
2024/01/11 05:37:51;;;;;;;10.50;10.30;;;-7.70;99.90;;;;;;5015047;28;20468;-69
2024/01/11 05:40:18;;;;;;;10.50;10.30;;;-7.70;99.90;;;;;;5024069;28;20472;-71
2024/01/11 05:42:44;;;;;;;9.70;9.50;;;-7.80;99.90;;;;;;5026521;28;20481;-68
2024/01/11 05:45:11;;;;;;;10.20;10.00;;;-7.80;99.90;;;;;;5032738;28;20477;-71
2024/01/11 05:47:38;;;;;;;10.53;10.33;;;-7.80;99.90;;;;;;5028101;28;20965;-71
2024/01/11 05:50:06;;;;;;;10.60;10.40;;;-7.80;99.90;;;;;;5021682;28;20456;-71
2024/01/11 05:52:34;;;;;;;10.03;9.83;;;-7.90;99.90;;;;;;5014517;28;20548;-70
2024/01/11 05:55:01;;;;;;;10.20;10.00;;;-7.80;99.90;;;;;;5013706;28;20491;-70
2024/01/11 05:57:28;;;;;;;10.30;10.10;;;-7.80;99.90;;;;;;5030912;28;20869;-70
2024/01/11 05:59:55;;;;;;;9.70;9.50;;;-7.80;99.90;;;;;;5020618;28;20466;-69
2024/01/11 06:02:22;;;;;;;9.77;9.57;;;-7.80;99.90;;;;;;5025371;28;21027;-69
2024/01/11 06:04:49;;;;;;;9.83;9.63;;;-7.80;99.90;;;;;;5015201;28;20487;-70
2024/01/11 06:07:16;;;;;;;10.50;10.30;;;-7.80;99.90;;;;;;5018282;28;20471;-69
2024/01/11 06:09:45;;;;;;;10.90;10.60;;;-7.80;99.90;;;;;;5029368;28;20469;-71
2024/01/11 06:12:13;;;;;;;10.27;10.07;;;-7.80;99.90;;;;;;5032338;28;20457;-71
2024/01/11 06:14:39;;;;;;;10.10;9.90;;;-7.90;99.90;;;;;;5035433;28;20498;-69
2024/01/11 06:17:06;;;;;;;9.63;9.43;;;-7.80;99.90;;;;;;5012201;28;20463;-70
2024/01/11 06:19:34;;;;;;;9.30;9.10;;;-7.80;99.90;;;;;;5024736;28;20458;-70
2024/01/11 06:22:01;;;;;;;10.00;9.80;;;-8.00;99.90;;;;;;5024746;28;20477;-69
2024/01/11 06:24:28;;;;;;;9.27;9.07;;;-7.80;99.90;;;;;;5020814;28;20518;-71
2024/01/11 06:26:56;;;;;;;9.60;9.40;;;-7.70;99.90;;;;;;5034103;28;20567;-71
2024/01/11 06:29:23;;;;;;;9.37;9.17;;;-7.50;99.90;;;;;;5037096;28;20550;-69
2024/01/11 06:31:50;;;;;;;8.67;8.57;;;-7.30;99.90;;;;;;5027599;28;20532;-69
2024/01/11 06:34:17;;;;;;;8.53;8.43;;;-7.20;99.90;;;;;;5022060;28;21023;-71
2024/01/11 06:36:44;;;;;;;9.03;8.83;;;-7.10;99.90;;;;;;5013024;28;20504;-69
2024/01/11 06:39:12;;;;;;;9.33;9.13;;;-7.00;99.90;;;;;;5024900;28;20559;-68
2024/01/11 06:41:39;;;;;;;8.67;8.57;;;-7.00;99.90;;;;;;5033488;28;20570;-70
2024/01/11 06:44:07;;;;;;;8.37;8.27;;;-7.10;99.90;;;;;;5025192;28;20579;-69
2024/01/11 06:46:35;;;;;;;9.20;9.00;;;-7.10;99.90;;;;;;5023624;28;20469;-70
2024/01/11 06:49:03;;;;;;;9.10;8.90;;;-6.90;99.90;;;;;;5031160;28;20464;-69
2024/01/11 06:51:30;;;;;;;9.20;9.00;;;-6.90;99.90;;;;;;5025939;28;20472;-70
2024/01/11 06:53:56;;;;;;;8.77;8.67;;;-7.00;99.90;;;;;;5015982;28;20458;-70
2024/01/11 06:56:24;;;;;;;8.60;8.50;;;-7.10;99.90;;;;;;5025336;28;20960;-70
2024/01/11 06:58:51;;;;;;;9.30;9.10;;;-7.10;99.90;;;;;;5027348;28;20488;-71
2024/01/11 07:01:20;;;;;;;9.60;9.40;;;-7.10;99.90;;;;;;5022277;28;20462;-70
2024/01/11 07:03:47;;;;;;;9.70;9.50;;;-7.20;99.90;;;;;;5032768;28;20778;-70
2024/01/11 07:06:16;;;;;;;8.83;8.70;;;-7.30;99.90;;;;;;5030587;28;20456;-71
2024/01/11 07:08:42;;;;;;;9.10;8.90;;;-7.30;99.90;;;;;;5019772;28;20465;-71
2024/01/11 07:11:09;;;;;;;9.43;9.23;;;-7.40;99.90;;;;;;5010039;28;20489;-69
2024/01/11 07:13:36;;;;;;;9.27;9.07;;;-7.40;99.90;;;;;;5020894;28;20497;-71
2024/01/11 07:16:04;;;;;;;8.97;8.80;;;-7.40;99.90;;;;;;5020800;28;20594;-69
2024/01/11 07:18:33;;;;;;;9.30;9.10;;;-7.40;99.90;;;;;;5021212;28;20883;-71
2024/01/11 07:21:00;;;;;;;9.77;9.57;;;-7.50;99.90;;;;;;5021916;28;20462;-71
2024/01/11 07:23:28;;;;;;;9.80;9.60;;;-7.50;99.90;;;;;;5020115;28;20461;-70
2024/01/11 07:25:55;;;;;;;9.40;9.20;;;-7.60;99.90;;;;;;5017067;28;20560;-68
2024/01/11 07:28:25;;;;;;;9.97;9.77;;;-7.70;99.90;;;;;;5030956;28;20515;-71
2024/01/11 07:30:52;;;;;;;10.17;9.97;;;-7.70;99.90;;;;;;5013208;28;20469;-70
2024/01/11 07:33:20;;;;;;;10.00;9.80;;;-7.80;99.90;;;;;;5030856;28;20464;-70
2024/01/11 07:35:49;;;;;;;10.13;9.93;;;-7.80;99.90;;;;;;5026276;28;20498;-70
2024/01/11 07:38:17;;;;;;;10.27;10.07;;;-7.60;99.90;;;;;;5023018;28;20476;-71
2024/01/11 07:40:44;;;;;;;10.70;10.50;;;-7.50;99.90;;;;;;5023510;28;20508;-69
2024/01/11 07:43:10;;;;;;;11.37;11.07;;;-7.50;99.90;;;;;;5017586;28;20524;-69
2024/01/11 07:45:37;;;;;;;10.70;10.50;;;-7.50;99.90;;;;;;5019490;28;20483;-70
2024/01/11 07:48:06;;;;;;;11.13;10.83;;;-7.50;99.90;;;;;;5031967;28;20465;-69
2024/01/11 07:50:33;;;;;;;10.77;10.57;;;-7.50;99.90;;;;;;5030687;28;20469;-71
2024/01/11 07:53:02;;;;;;;11.47;11.17;;;-7.50;99.90;;;;;;5034496;28;20554;-70
2024/01/11 07:55:28;;;;;;;10.10;9.90;;;-7.60;99.90;;;;;;5028722;28;20521;-72
2024/01/11 07:57:55;;;;;;;10.07;9.87;;;-7.50;99.90;;;;;;5016380;28;20464;-71
2024/01/11 08:00:23;;;;;;;10.33;10.13;;;-7.60;99.90;;;;;;5017777;28;20468;-71
2024/01/11 08:02:49;;;;;;;10.63;10.43;;;-7.50;99.90;;;;;;5024275;28;21605;-71
2024/01/11 08:05:17;;;;;;;10.23;10.03;;;-7.40;99.90;;;;;;5024659;28;20473;-70
2024/01/11 08:07:44;;;;;;;9.70;9.50;;;-7.30;99.90;;;;;;5022751;28;20465;-70
2024/01/11 08:10:13;;;;;;;10.17;9.97;;;-7.20;99.90;;;;;;5025767;28;20492;-70
2024/01/11 08:12:39;;;;;;;9.80;9.60;;;-7.10;99.90;;;;;;5024346;28;20576;-69
2024/01/11 08:15:12;;;;;;;10.87;10.57;;;-7.10;99.90;;;;;;5027873;28;21006;-71
2024/01/11 08:17:39;;;;;;;10.10;9.90;;;-7.10;99.90;;;;;;5022422;28;20481;-71
2024/01/11 08:20:08;;;;;;;10.27;10.07;;;-7.10;99.90;;;;;;5018607;28;20561;-71
2024/01/11 08:22:37;;;;;;;9.77;9.57;;;-7.10;99.90;;;;;;5017390;28;20556;-71
2024/01/11 08:25:05;;;;;;;9.90;9.70;;;-7.10;99.90;;;;;;5034221;28;20918;-71
2024/01/11 08:27:33;;;;;;;10.53;10.33;;;-7.10;99.90;;;;;;5022021;28;20976;-70
2024/01/11 08:30:01;;;;;;;9.83;9.63;;;-7.00;99.90;;;;;;5028252;28;20524;-71
2024/01/11 08:32:29;;;;;;;10.70;10.50;;;-7.00;99.90;;;;;;5024305;28;20464;-71
2024/01/11 08:34:57;;;;;;;10.60;10.40;;;-7.00;99.90;;;;;;5024328;28;20508;-70
2024/01/11 08:37:24;;;;;;;10.57;10.37;;;-6.90;99.90;;;;;;5021481;28;20476;-71
2024/01/11 08:39:51;;;;;;;11.20;10.90;;;-6.80;99.90;;;;;;5017450;28;21049;-70
2024/01/11 08:42:18;;;;;;;10.33;10.13;;;-6.60;99.90;;;;;;5019886;28;20473;-70
2024/01/11 08:44:47;;;;;;;11.00;10.70;;;-6.50;99.90;;;;;;5027891;28;20488;-71
2024/01/11 08:47:14;;;;;;;10.57;10.37;;;-6.50;99.90;;;;;;5009944;28;20496;-70
2024/01/11 08:49:41;;;;;;;10.40;10.20;;;-6.30;99.90;;;;;;5021799;28;20876;-71
2024/01/11 08:52:09;;;;;;;10.67;10.47;;;-6.30;99.90;;;;;;5007122;28;20477;-70
2024/01/11 08:54:35;;;;;;;11.13;10.83;;;-6.30;99.90;;;;;;5014070;28;20472;-70
2024/01/11 08:57:04;;;;;;;10.40;10.20;;;-6.30;99.90;;;;;;5011457;28;20466;-70
2024/01/11 08:59:32;;;;;;;10.07;9.87;;;-6.30;99.90;;;;;;5007182;28;20458;-72
2024/01/11 09:02:01;;;;;;;10.20;10.00;;;-6.30;99.90;;;;;;5016736;28;20540;-71
2024/01/11 09:04:29;;;;;;;10.40;10.20;;;-6.20;99.90;;;;;;5015339;28;20565;-71
2024/01/11 09:06:57;;;;;;;10.70;10.50;;;-6.10;99.90;;;;;;5013089;28;20737;-70
2024/01/11 09:09:23;;;;;;;11.13;10.83;;;-5.90;99.90;;;;;;5015089;28;20579;-69
2024/01/11 09:11:50;;;;;;;10.63;10.43;;;-5.90;99.90;;;;;;5014343;28;20726;-70
2024/01/11 09:14:17;;;;;;;11.00;10.70;;;-5.80;99.90;;;;;;5015111;28;20488;-70
2024/01/11 09:16:45;;;;;;;10.60;10.37;;;-5.80;99.90;;;;;;5010794;28;20488;-70
2024/01/11 09:19:13;;;;;;;11.30;11.00;;;-5.70;99.90;;;;;;5013432;28;20594;-69
2024/01/11 09:21:42;;;;;;;11.30;11.00;;;-5.50;99.90;;;;;;5014757;28;20474;-70
2024/01/11 09:24:09;;;;;;;11.00;10.70;;;-5.40;99.90;;;;;;5014869;28;20833;-69
2024/01/11 09:26:37;;;;;;;10.60;10.40;;;-5.40;99.90;;;;;;5016437;28;20520;-70
2024/01/11 09:29:03;;;;;;;10.93;10.63;;;-5.40;99.90;;;;;;5013547;28;20548;-69
2024/01/11 09:31:31;;;;;;;10.43;10.23;;;-5.40;99.90;;;;;;5013570;28;20740;-69
2024/01/11 09:33:58;;;;;;;11.07;10.77;;;-5.30;99.90;;;;;;5016414;28;20810;-70
2024/01/11 09:36:26;;;;;;;11.47;11.17;;;-5.20;99.90;;;;;;5016284;28;20500;-71
2024/01/11 09:38:53;;;;;;;10.83;10.53;;;-5.10;99.90;;;;;;5012858;28;20995;-70
2024/01/11 09:41:20;;;;;;;11.10;10.80;;;-5.10;99.90;;;;;;5010206;28;20475;-70
2024/01/11 09:43:49;;;;;;;11.30;11.00;;;-5.00;99.90;;;;;;5015018;28;20485;-70
2024/01/11 09:46:17;;;;;;;10.70;10.40;;;-4.90;99.90;;;;;;5009205;28;20465;-69
2024/01/11 09:48:45;;;;;;;11.23;10.93;;;-4.80;99.90;;;;;;5015618;28;20473;-70
2024/01/11 09:51:12;;;;;;;11.67;11.37;;;-4.70;99.90;;;;;;5016433;28;20931;-70
2024/01/11 09:53:41;;;;;;;11.80;11.50;;;-4.60;99.90;;;;;;5016373;28;20464;-69
2024/01/11 09:56:10;;;;;;;11.57;11.27;;;-4.50;99.90;;;;;;5015723;28;20736;-70
2024/01/11 09:58:38;;;;;;;11.67;11.37;;;-4.40;99.90;;;;;;5012392;28;20457;-70
2024/01/11 10:01:09;;;;;;;11.77;11.47;;;-4.30;99.90;;;;;;5015329;28;20461;-70
2024/01/11 10:03:36;;;;;;;11.30;11.00;;;-4.20;99.90;;;;;;5014548;28;20466;-70
2024/01/11 10:06:04;;;;;;;11.77;11.47;;;-4.10;99.90;;;;;;5013193;28;20987;-70
2024/01/11 10:08:32;;;;;;;12.80;12.40;;;-4.10;99.90;;;;;;5013476;28;20574;-70
2024/01/11 10:11:00;;;;;;;11.63;11.33;;;-3.90;99.90;;;;;;5015124;28;20965;-70
2024/01/11 10:13:30;;;;;;;12.33;12.00;;;-3.80;99.90;;;;;;5013853;28;20524;-69
2024/01/11 10:16:07;;;;;;;12.40;12.00;;;-3.80;99.90;;;;;;5011416;28;20491;-70
2024/01/11 10:18:34;;;;;;;12.57;12.17;;;-3.80;99.90;;;;;;5014222;28;20555;-70
2024/01/11 10:21:02;;;;;;;12.70;12.30;;;-3.70;99.90;;;;;;5016721;28;20558;-70
2024/01/11 10:23:29;;;;;;;13.10;12.70;;;-3.60;99.90;;;;;;5016938;28;20525;-69
2024/01/11 10:25:57;;;;;;;12.90;12.50;;;-3.50;99.90;;;;;;5011160;28;21172;-70
2024/01/11 10:28:26;;;;;;;12.70;12.30;;;-3.40;99.90;;;;;;5016443;28;20864;-70
2024/01/11 10:30:54;;;;;;;12.57;12.17;;;-3.40;99.90;;;;;;5012592;28;20756;-70
2024/01/11 10:33:21;;;;;;;13.50;13.10;;;-3.30;99.90;;;;;;5015242;28;20469;-70
2024/01/11 10:35:49;;;;;;;13.40;13.00;;;-3.30;99.90;;;;;;5017337;28;20591;-70
2024/01/11 10:38:17;;;;;;;14.07;13.57;;;-3.30;99.90;;;;;;5007693;28;20507;-70
2024/01/11 10:40:46;;;;;;;13.90;13.40;;;-3.10;99.90;;;;;;5014864;28;20470;-70
2024/01/11 10:43:16;;;;;;;14.10;13.60;;;-3.00;99.90;;;;;;5015796;28;20466;-71
2024/01/11 10:45:48;;;;;;;15.03;14.50;;;-3.00;99.90;;;;;;5015401;28;20969;-70
2024/01/11 10:48:16;;;;;;;14.90;14.40;;;-2.90;99.90;;;;;;5013929;28;20469;-70
2024/01/11 10:50:44;;;;;;;14.60;14.10;;;-2.80;99.90;;;;;;5006577;28;20469;-71
2024/01/11 10:53:24;;;;;;;14.43;13.93;;;-2.70;99.90;;;;;;5014095;28;20454;-70
2024/01/11 10:55:51;;;;;;;15.20;14.60;;;-2.60;99.90;;;;;;5012553;28;20488;-71
2024/01/11 10:58:20;;;;;;;14.97;14.37;;;-2.50;99.90;;;;;;5016206;28;20469;-70
2024/01/11 11:00:50;;;;;;;15.40;14.80;;;-2.50;99.90;;;;;;5018986;28;20574;-71
2024/01/11 11:03:20;;;;;;;14.93;14.37;;;-2.40;99.90;;;;;;5020950;28;20481;-70
2024/01/11 11:05:50;;;;;;;15.13;14.53;;;-2.30;99.90;;;;;;5016085;28;20469;-70
2024/01/11 11:08:18;;;;;;;14.60;14.10;;;-2.30;99.90;;;;;;5013923;28;21064;-70
2024/01/11 11:10:47;;;;;;;15.17;14.57;;;-2.20;99.90;;;;;;5014698;28;20465;-71
2024/01/11 11:13:16;;;;;;;14.73;14.23;;;-2.10;99.90;;;;;;5019123;28;20584;-71
2024/01/11 11:15:46;;;;;;;15.43;14.83;;;-2.00;99.90;;;;;;5014713;28;20926;-71
2024/01/11 11:18:15;;;;;;;16.40;15.70;;;-1.80;99.90;;;;;;5015667;28;20469;-70
2024/01/11 11:20:43;;;;;;;16.40;15.70;;;-1.20;99.90;;;;;;5014523;28;20469;-71
2024/01/11 11:23:12;;;;;;;16.67;15.97;;;-0.50;99.90;;;;;;5018824;28;20469;-70
2024/01/11 11:25:42;;;;;;;16.17;15.57;;;-0.10;99.90;;;;;;5011910;28;20528;-71
2024/01/11 11:28:09;;;;;;;15.93;15.33;;;-0.10;99.90;;;;;;5017920;28;21355;-71
2024/01/11 11:30:39;;;;;;;16.10;15.50;;;-0.50;99.90;;;;;;5012004;28;20473;-71
2024/01/11 11:33:10;;;;;;;15.90;15.30;;;-0.70;99.90;;;;;;5012840;28;20468;-72
2024/01/11 11:35:39;;;;;;;16.10;15.50;;;-0.80;99.90;;;;;;5014577;28;20468;-71
2024/01/11 11:38:06;;;;;;;15.90;15.30;;;-1.00;99.90;;;;;;5007179;28;20995;-71
2024/01/11 11:40:39;;;;;;;15.93;15.33;;;-1.00;99.90;;;;;;5013573;28;20465;-71
2024/01/11 11:43:06;;;;;;;16.00;15.40;;;-1.00;99.90;;;;;;5008396;28;20465;-71
2024/01/11 11:45:33;;;;;;;16.43;15.83;;;-1.00;99.90;;;;;;5017198;28;20474;-71
2024/01/11 11:48:00;;;;;;;16.60;15.90;;;-0.90;99.90;;;;;;5016621;28;20567;-71
2024/01/11 11:50:27;;;;;;;16.80;16.10;;;-0.60;99.90;;;;;;5014055;28;20462;-71
2024/01/11 11:52:57;;;;;;;17.20;16.43;;;0.30;99.90;;;;;;5013789;28;20562;-71
2024/01/11 11:55:25;;;;;;;17.10;16.40;;;1.10;99.90;;;;;;5010964;28;20642;-71
2024/01/11 11:57:51;;;;;;;16.63;15.93;;;1.50;99.90;;;;;;5007149;28;20588;-71
2024/01/11 12:00:18;;;;;;;16.40;15.70;;;2.00;99.90;;;;;;5015491;28;20556;-72
2024/01/11 12:02:47;;;;;;;16.40;15.80;;;2.30;99.90;;;;;;5016099;28;20830;-72
2024/01/11 12:05:14;;;;;;;16.90;16.20;;;2.50;99.90;;;;;;5011226;28;20465;-71
2024/01/11 12:07:41;;;;;;;16.87;16.17;;;2.70;99.90;;;;;;5010314;28;20471;-72
2024/01/11 12:10:09;;;;;;;17.27;16.57;;;2.70;99.90;;;;;;5011020;28;20459;-72
2024/01/11 12:12:39;;;;;;;17.00;16.30;;;2.50;99.90;;;;;;5011603;28;20468;-72
2024/01/11 12:15:07;;;;;;;16.60;15.90;;;2.90;99.90;;;;;;5012281;28;20488;-72
2024/01/11 12:17:34;;;;;;;16.80;16.10;;;3.30;99.90;;;;;;5013235;28;20502;-72
2024/01/11 12:20:02;;;;;;;16.83;16.13;;;3.50;99.90;;;;;;5014098;28;20472;-73
2024/01/11 12:22:29;;;;;;;17.23;16.53;;;3.70;99.90;;;;;;5012420;28;20480;-73
2024/01/11 12:24:57;;;;;;;15.93;15.33;;;3.60;99.90;;;;;;5009724;28;20472;-73
2024/01/11 12:27:26;;;;;;;16.20;15.60;;;3.50;99.90;;;;;;5013767;28;20464;-72
2024/01/11 12:29:54;;;;;;;16.00;15.40;;;3.50;99.90;;;;;;5017285;28;20460;-72
2024/01/11 12:32:20;;;;;;;15.30;14.70;;;3.90;99.90;;;;;;5014793;28;20473;-72